Hewlett Harbor, New York
Current Conditions -  °F | °C
As of 9:51 AM on Friday 28 Nov 2014 (Local Time) from KJFK Reporting Station
Scattered Clouds Scattered Clouds  
Wind Chill: 25°   Ceiling: Unl
Heat Index: 36°   Visibility: 10mi
Dew Point: 20°   Wind: 20mph
Humidity: 52%   Direction: 330°NNW
Pressure: 30.19"   Gusts: NA
Location:  40.637°N, 73.6912°W
Report Text: KJFK 281451Z 33017KT 10SM SCT033 SCT150 02/M07 A3019 RMK AO2 SLP222 T00221067 51016 $
Loading
Personal Weather Stations






























Interactive Weather Map New forecast layout! Learn more

10-Day Weather Forecast

Advertisements
Track Severe Weather on mobile